sensor_id;sensor_type;location;lat;lon;timestamp;P1;P2;P0
45700;PMS5003;36277;32.852;-116.998;2022-08-19T00:00:50;3.60;3.60;2.80
45700;PMS5003;36277;32.852;-116.998;2022-08-19T00:03:17;4.40;4.40;3.40
45700;PMS5003;36277;32.852;-116.998;2022-08-19T00:05:43;4.40;4.40;3.60
45700;PMS5003;36277;32.852;-116.998;2022-08-19T00:08:09;3.00;3.00;2.40
45700;PMS5003;36277;32.852;-116.998;2022-08-19T00:10:36;1.40;1.40;1.40
45700;PMS5003;36277;32.852;-116.998;2022-08-19T00:13:02;3.40;3.40;3.00
45700;PMS5003;36277;32.852;-116.998;2022-08-19T00:15:29;0.20;0.20;0.20
45700;PMS5003;36277;32.852;-116.998;2022-08-19T00:17:55;3.80;3.80;3.00
45700;PMS5003;36277;32.852;-116.998;2022-08-19T00:20:22;4.40;4.40;4.00
45700;PMS5003;36277;32.852;-116.998;2022-08-19T00:22:49;4.00;4.00;3.20
45700;PMS5003;36277;32.852;-116.998;2022-08-19T00:25:17;3.00;3.00;3.00
45700;PMS5003;36277;32.852;-116.998;2022-08-19T00:27:52;5.20;5.20;4.00
45700;PMS5003;36277;32.852;-116.998;2022-08-19T00:30:18;3.20;3.20;3.00
45700;PMS5003;36277;32.852;-116.998;2022-08-19T00:32:45;4.00;4.00;3.00
45700;PMS5003;36277;32.852;-116.998;2022-08-19T00:35:14;4.00;4.00;3.20
45700;PMS5003;36277;32.852;-116.998;2022-08-19T00:37:40;3.00;3.00;2.00
45700;PMS5003;36277;32.852;-116.998;2022-08-19T00:40:09;3.00;3.00;2.60
45700;PMS5003;36277;32.852;-116.998;2022-08-19T00:42:47;3.60;3.60;3.60
45700;PMS5003;36277;32.852;-116.998;2022-08-19T00:45:15;3.40;3.40;2.60
45700;PMS5003;36277;32.852;-116.998;2022-08-19T00:47:45;3.60;3.60;3.40
45700;PMS5003;36277;32.852;-116.998;2022-08-19T00:50:15;4.40;4.40;4.00
45700;PMS5003;36277;32.852;-116.998;2022-08-19T00:52:45;3.80;3.80;3.60
45700;PMS5003;36277;32.852;-116.998;2022-08-19T00:55:16;3.00;3.00;2.00
45700;PMS5003;36277;32.852;-116.998;2022-08-19T00:57:47;3.00;3.00;3.00
45700;PMS5003;36277;32.852;-116.998;2022-08-19T01:00:18;2.80;2.80;2.40
45700;PMS5003;36277;32.852;-116.998;2022-08-19T01:02:45;2.40;2.40;2.00
45700;PMS5003;36277;32.852;-116.998;2022-08-19T01:05:13;2.40;2.40;2.40
45700;PMS5003;36277;32.852;-116.998;2022-08-19T01:07:43;0.00;0.00;0.00
45700;PMS5003;36277;32.852;-116.998;2022-08-19T01:10:12;3.20;3.20;2.80
45700;PMS5003;36277;32.852;-116.998;2022-08-19T01:12:41;4.00;4.00;3.00
45700;PMS5003;36277;32.852;-116.998;2022-08-19T01:15:07;3.20;3.20;3.00
45700;PMS5003;36277;32.852;-116.998;2022-08-19T01:17:36;4.00;4.00;3.00
45700;PMS5003;36277;32.852;-116.998;2022-08-19T01:20:05;2.80;2.80;2.40
45700;PMS5003;36277;32.852;-116.998;2022-08-19T01:22:36;2.80;2.80;2.40
45700;PMS5003;36277;32.852;-116.998;2022-08-19T01:25:09;3.00;3.00;2.80
45700;PMS5003;36277;32.852;-116.998;2022-08-19T01:27:40;2.80;2.80;2.40
45700;PMS5003;36277;32.852;-116.998;2022-08-19T01:30:09;3.00;3.00;2.80
45700;PMS5003;36277;32.852;-116.998;2022-08-19T01:32:44;3.60;3.60;2.80
45700;PMS5003;36277;32.852;-116.998;2022-08-19T01:35:11;3.00;3.00;3.00
45700;PMS5003;36277;32.852;-116.998;2022-08-19T01:37:42;3.00;3.00;3.00
45700;PMS5003;36277;32.852;-116.998;2022-08-19T01:40:20;2.00;2.00;2.00
45700;PMS5003;36277;32.852;-116.998;2022-08-19T01:42:58;2.00;2.00;2.00
45700;PMS5003;36277;32.852;-116.998;2022-08-19T01:45:26;1.60;1.60;1.40
45700;PMS5003;36277;32.852;-116.998;2022-08-19T01:47:54;3.80;3.80;3.00
45700;PMS5003;36277;32.852;-116.998;2022-08-19T01:50:21;2.60;2.60;2.20
45700;PMS5003;36277;32.852;-116.998;2022-08-19T01:52:48;2.80;2.80;2.60
45700;PMS5003;36277;32.852;-116.998;2022-08-19T01:55:16;3.80;3.80;3.80
45700;PMS5003;36277;32.852;-116.998;2022-08-19T01:57:48;2.40;2.40;2.40
45700;PMS5003;36277;32.852;-116.998;2022-08-19T02:00:22;3.00;3.00;2.80
45700;PMS5003;36277;32.852;-116.998;2022-08-19T02:02:50;2.80;2.80;2.00
45700;PMS5003;36277;32.852;-116.998;2022-08-19T02:05:17;3.20;3.20;3.00
45700;PMS5003;36277;32.852;-116.998;2022-08-19T02:07:46;2.60;2.60;2.00
45700;PMS5003;36277;32.852;-116.998;2022-08-19T02:10:16;4.00;4.00;3.40
45700;PMS5003;36277;32.852;-116.998;2022-08-19T02:12:44;4.00;4.00;4.00
45700;PMS5003;36277;32.852;-116.998;2022-08-19T02:15:10;3.60;3.60;3.20
45700;PMS5003;36277;32.852;-116.998;2022-08-19T02:17:37;2.60;2.60;2.40
45700;PMS5003;36277;32.852;-116.998;2022-08-19T02:20:04;2.40;2.40;2.00
45700;PMS5003;36277;32.852;-116.998;2022-08-19T02:22:32;3.60;3.60;3.00
45700;PMS5003;36277;32.852;-116.998;2022-08-19T02:24:59;2.80;2.80;2.40
45700;PMS5003;36277;32.852;-116.998;2022-08-19T02:27:25;3.00;3.00;2.80
45700;PMS5003;36277;32.852;-116.998;2022-08-19T02:29:51;4.00;4.00;4.00
45700;PMS5003;36277;32.852;-116.998;2022-08-19T02:32:18;4.60;4.60;3.00
45700;PMS5003;36277;32.852;-116.998;2022-08-19T02:34:45;4.00;4.00;3.00
45700;PMS5003;36277;32.852;-116.998;2022-08-19T02:37:12;5.00;5.00;3.40
45700;PMS5003;36277;32.852;-116.998;2022-08-19T02:39:57;2.80;2.80;2.80
45700;PMS5003;36277;32.852;-116.998;2022-08-19T02:42:24;3.00;3.00;2.60
45700;PMS5003;36277;32.852;-116.998;2022-08-19T02:44:51;3.20;3.20;2.80
45700;PMS5003;36277;32.852;-116.998;2022-08-19T02:47:17;4.00;4.00;3.40
45700;PMS5003;36277;32.852;-116.998;2022-08-19T02:49:44;4.80;4.80;3.20
45700;PMS5003;36277;32.852;-116.998;2022-08-19T02:52:11;5.00;5.00;3.80
45700;PMS5003;36277;32.852;-116.998;2022-08-19T02:54:37;5.00;5.00;4.00
45700;PMS5003;36277;32.852;-116.998;2022-08-19T02:57:04;5.00;5.00;4.60
45700;PMS5003;36277;32.852;-116.998;2022-08-19T02:59:31;4.80;4.80;4.00
45700;PMS5003;36277;32.852;-116.998;2022-08-19T03:01:58;5.00;5.00;3.80
45700;PMS5003;36277;32.852;-116.998;2022-08-19T03:04:24;6.00;6.00;5.00
45700;PMS5003;36277;32.852;-116.998;2022-08-19T03:06:51;6.40;6.40;5.80
45700;PMS5003;36277;32.852;-116.998;2022-08-19T03:09:19;6.60;6.60;5.40
45700;PMS5003;36277;32.852;-116.998;2022-08-19T03:11:45;6.00;6.00;4.80
45700;PMS5003;36277;32.852;-116.998;2022-08-19T03:14:12;7.80;7.80;5.20
45700;PMS5003;36277;32.852;-116.998;2022-08-19T03:16:49;6.60;6.60;5.40
45700;PMS5003;36277;32.852;-116.998;2022-08-19T03:19:18;6.00;6.00;4.60
45700;PMS5003;36277;32.852;-116.998;2022-08-19T03:21:46;7.20;7.20;5.60
45700;PMS5003;36277;32.852;-116.998;2022-08-19T03:24:13;5.40;5.40;4.40
45700;PMS5003;36277;32.852;-116.998;2022-08-19T03:26:41;7.00;7.00;5.00
45700;PMS5003;36277;32.852;-116.998;2022-08-19T03:29:10;9.60;8.60;5.40
45700;PMS5003;36277;32.852;-116.998;2022-08-19T03:31:38;20.20;20.20;13.60
45700;PMS5003;36277;32.852;-116.998;2022-08-19T03:34:06;29.00;29.00;16.80
45700;PMS5003;36277;32.852;-116.998;2022-08-19T03:36:33;37.80;36.20;21.40
45700;PMS5003;36277;32.852;-116.998;2022-08-19T03:39:00;47.75;41.25;25.75
45700;PMS5003;36277;32.852;-116.998;2022-08-19T03:41:28;53.25;45.50;26.50
45700;PMS5003;36277;32.852;-116.998;2022-08-19T03:44:02;55.33;47.33;27.00
45700;PMS5003;36277;32.852;-116.998;2022-08-19T03:46:31;50.75;41.50;25.50
45700;PMS5003;36277;32.852;-116.998;2022-08-19T03:48:59;36.80;34.60;22.00
45700;PMS5003;36277;32.852;-116.998;2022-08-19T03:51:30;38.40;34.80;22.20
45700;PMS5003;36277;32.852;-116.998;2022-08-19T03:54:04;31.60;31.00;21.40
45700;PMS5003;36277;32.852;-116.998;2022-08-19T03:56:34;38.20;35.80;21.80
45700;PMS5003;36277;32.852;-116.998;2022-08-19T03:59:02;28.40;28.40;18.20
45700;PMS5003;36277;32.852;-116.998;2022-08-19T04:01:30;36.00;33.60;22.20
45700;PMS5003;36277;32.852;-116.998;2022-08-19T04:03:56;31.20;31.20;19.40
45700;PMS5003;36277;32.852;-116.998;2022-08-19T04:06:26;29.60;29.20;18.80
45700;PMS5003;36277;32.852;-116.998;2022-08-19T04:08:57;30.20;29.80;17.40
45700;PMS5003;36277;32.852;-116.998;2022-08-19T04:11:30;28.60;27.40;16.80
45700;PMS5003;36277;32.852;-116.998;2022-08-19T04:14:12;31.20;31.20;17.60
45700;PMS5003;36277;32.852;-116.998;2022-08-19T04:16:40;26.20;26.20;14.60
45700;PMS5003;36277;32.852;-116.998;2022-08-19T04:19:09;25.20;25.20;15.40
45700;PMS5003;36277;32.852;-116.998;2022-08-19T04:21:35;17.40;17.40;11.60
45700;PMS5003;36277;32.852;-116.998;2022-08-19T04:24:02;18.80;18.80;11.40
45700;PMS5003;36277;32.852;-116.998;2022-08-19T04:26:31;14.00;14.00;10.60
45700;PMS5003;36277;32.852;-116.998;2022-08-19T04:29:00;16.60;16.60;9.00
45700;PMS5003;36277;32.852;-116.998;2022-08-19T04:31:30;15.00;15.00;9.60
45700;PMS5003;36277;32.852;-116.998;2022-08-19T04:34:01;13.60;13.60;9.20
45700;PMS5003;36277;32.852;-116.998;2022-08-19T04:36:30;13.80;13.80;9.20
45700;PMS5003;36277;32.852;-116.998;2022-08-19T04:39:01;11.20;11.20;8.00
45700;PMS5003;36277;32.852;-116.998;2022-08-19T04:41:30;7.40;7.40;4.00
45700;PMS5003;36277;32.852;-116.998;2022-08-19T04:44:15;8.80;8.80;6.80
45700;PMS5003;36277;32.852;-116.998;2022-08-19T04:46:48;10.60;10.60;7.00
45700;PMS5003;36277;32.852;-116.998;2022-08-19T04:49:16;8.00;8.00;6.00
45700;PMS5003;36277;32.852;-116.998;2022-08-19T04:51:44;9.40;9.40;7.60
45700;PMS5003;36277;32.852;-116.998;2022-08-19T04:54:13;9.60;9.60;7.00
45700;PMS5003;36277;32.852;-116.998;2022-08-19T04:56:40;9.40;9.40;7.80
45700;PMS5003;36277;32.852;-116.998;2022-08-19T04:59:07;7.80;7.80;6.40
45700;PMS5003;36277;32.852;-116.998;2022-08-19T05:01:33;9.00;9.00;7.40
45700;PMS5003;36277;32.852;-116.998;2022-08-19T05:04:02;9.80;9.80;7.20
45700;PMS5003;36277;32.852;-116.998;2022-08-19T05:06:30;20.80;20.80;14.20
45700;PMS5003;36277;32.852;-116.998;2022-08-19T05:09:02;32.50;31.25;19.75
45700;PMS5003;36277;32.852;-116.998;2022-08-19T05:11:34;49.25;41.50;25.75
45700;PMS5003;36277;32.852;-116.998;2022-08-19T05:14:04;59.75;48.50;29.25
45700;PMS5003;36277;32.852;-116.998;2022-08-19T05:16:31;56.50;45.75;26.25
45700;PMS5003;36277;32.852;-116.998;2022-08-19T05:18:58;38.75;34.25;17.75
45700;PMS5003;36277;32.852;-116.998;2022-08-19T05:21:43;37.75;34.50;22.25
45700;PMS5003;36277;32.852;-116.998;2022-08-19T05:24:28;44.00;37.00;22.25
45700;PMS5003;36277;32.852;-116.998;2022-08-19T05:26:55;36.50;33.25;21.75
45700;PMS5003;36277;32.852;-116.998;2022-08-19T05:29:23;39.75;35.00;22.00
45700;PMS5003;36277;32.852;-116.998;2022-08-19T05:31:52;38.25;35.00;20.25
45700;PMS5003;36277;32.852;-116.998;2022-08-19T05:34:19;39.00;34.75;20.00
45700;PMS5003;36277;32.852;-116.998;2022-08-19T05:36:48;37.00;34.00;21.00
45700;PMS5003;36277;32.852;-116.998;2022-08-19T05:39:19;33.75;31.75;19.50
45700;PMS5003;36277;32.852;-116.998;2022-08-19T05:41:47;37.50;34.25;20.00
45700;PMS5003;36277;32.852;-116.998;2022-08-19T05:44:15;32.25;31.00;19.00
45700;PMS5003;36277;32.852;-116.998;2022-08-19T05:46:45;34.75;32.00;19.25
45700;PMS5003;36277;32.852;-116.998;2022-08-19T05:49:18;30.50;29.75;16.50
45700;PMS5003;36277;32.852;-116.998;2022-08-19T05:51:46;29.80;29.20;16.20
45700;PMS5003;36277;32.852;-116.998;2022-08-19T05:54:12;29.75;29.25;15.25
45700;PMS5003;36277;32.852;-116.998;2022-08-19T05:56:39;31.80;30.00;18.40
45700;PMS5003;36277;32.852;-116.998;2022-08-19T05:59:07;33.60;31.60;19.60
45700;PMS5003;36277;32.852;-116.998;2022-08-19T06:01:36;27.80;27.80;18.00
45700;PMS5003;36277;32.852;-116.998;2022-08-19T06:04:04;33.40;32.60;20.00
45700;PMS5003;36277;32.852;-116.998;2022-08-19T06:06:32;28.80;28.80;15.20
45700;PMS5003;36277;32.852;-116.998;2022-08-19T06:09:00;27.20;26.20;14.20
45700;PMS5003;36277;32.852;-116.998;2022-08-19T06:11:32;30.40;29.60;18.80
45700;PMS5003;36277;32.852;-116.998;2022-08-19T06:14:06;31.80;29.80;19.00
45700;PMS5003;36277;32.852;-116.998;2022-08-19T06:16:40;31.40;30.20;18.00
45700;PMS5003;36277;32.852;-116.998;2022-08-19T06:19:09;28.60;28.40;15.60
45700;PMS5003;36277;32.852;-116.998;2022-08-19T06:21:40;26.00;26.00;15.00
45700;PMS5003;36277;32.852;-116.998;2022-08-19T06:24:10;26.20;26.00;16.20
45700;PMS5003;36277;32.852;-116.998;2022-08-19T06:26:39;23.20;23.20;13.80
45700;PMS5003;36277;32.852;-116.998;2022-08-19T06:29:09;26.40;26.40;13.60
45700;PMS5003;36277;32.852;-116.998;2022-08-19T06:31:37;23.80;23.40;15.20
45700;PMS5003;36277;32.852;-116.998;2022-08-19T06:34:07;21.80;21.80;14.60
45700;PMS5003;36277;32.852;-116.998;2022-08-19T06:36:36;17.20;17.00;10.00
45700;PMS5003;36277;32.852;-116.998;2022-08-19T06:39:15;22.60;22.60;15.20
45700;PMS5003;36277;32.852;-116.998;2022-08-19T06:41:45;18.00;18.00;10.00
45700;PMS5003;36277;32.852;-116.998;2022-08-19T06:44:16;14.80;14.80;9.60
45700;PMS5003;36277;32.852;-116.998;2022-08-19T06:46:44;11.60;11.00;5.80
45700;PMS5003;36277;32.852;-116.998;2022-08-19T06:49:11;15.60;15.60;10.60
45700;PMS5003;36277;32.852;-116.998;2022-08-19T06:51:40;12.00;11.40;8.80
45700;PMS5003;36277;32.852;-116.998;2022-08-19T06:54:10;12.80;12.80;8.60
45700;PMS5003;36277;32.852;-116.998;2022-08-19T06:56:36;12.60;12.60;9.00
45700;PMS5003;36277;32.852;-116.998;2022-08-19T06:59:04;13.00;13.00;9.20
45700;PMS5003;36277;32.852;-116.998;2022-08-19T07:01:36;13.40;13.40;9.00
45700;PMS5003;36277;32.852;-116.998;2022-08-19T07:04:08;12.60;12.60;9.00
45700;PMS5003;36277;32.852;-116.998;2022-08-19T07:06:35;7.60;7.60;5.80
45700;PMS5003;36277;32.852;-116.998;2022-08-19T07:09:03;7.00;7.00;5.40
45700;PMS5003;36277;32.852;-116.998;2022-08-19T07:11:31;11.40;11.00;7.00
45700;PMS5003;36277;32.852;-116.998;2022-08-19T07:13:58;10.00;10.00;7.20
45700;PMS5003;36277;32.852;-116.998;2022-08-19T07:16:25;10.80;10.80;7.40
45700;PMS5003;36277;32.852;-116.998;2022-08-19T07:18:52;4.60;4.60;3.80
45700;PMS5003;36277;32.852;-116.998;2022-08-19T07:21:20;8.60;8.40;6.00
45700;PMS5003;36277;32.852;-116.998;2022-08-19T07:23:49;4.00;4.00;4.00
45700;PMS5003;36277;32.852;-116.998;2022-08-19T07:28:45;8.00;8.00;6.20
45700;PMS5003;36277;32.852;-116.998;2022-08-19T07:31:13;5.40;5.40;4.00
45700;PMS5003;36277;32.852;-116.998;2022-08-19T07:33:43;9.20;9.20;6.60
45700;PMS5003;36277;32.852;-116.998;2022-08-19T07:36:12;5.60;5.60;5.00
45700;PMS5003;36277;32.852;-116.998;2022-08-19T07:38:41;5.80;5.80;5.60
45700;PMS5003;36277;32.852;-116.998;2022-08-19T07:41:14;6.20;6.20;4.40
45700;PMS5003;36277;32.852;-116.998;2022-08-19T07:43:43;6.20;6.20;4.20
45700;PMS5003;36277;32.852;-116.998;2022-08-19T07:46:11;7.00;7.00;5.00
45700;PMS5003;36277;32.852;-116.998;2022-08-19T07:48:39;5.00;5.00;4.60
45700;PMS5003;36277;32.852;-116.998;2022-08-19T07:51:08;4.00;4.00;3.00
45700;PMS5003;36277;32.852;-116.998;2022-08-19T07:53:35;4.80;4.80;3.60
45700;PMS5003;36277;32.852;-116.998;2022-08-19T07:56:03;3.20;3.20;3.20
45700;PMS5003;36277;32.852;-116.998;2022-08-19T07:58:32;4.60;4.00;3.60
45700;PMS5003;36277;32.852;-116.998;2022-08-19T08:01:00;4.00;4.00;3.00
45700;PMS5003;36277;32.852;-116.998;2022-08-19T08:03:30;4.80;4.80;4.00
45700;PMS5003;36277;32.852;-116.998;2022-08-19T08:06:15;4.00;4.00;3.80
45700;PMS5003;36277;32.852;-116.998;2022-08-19T08:09:03;2.60;2.60;2.00
45700;PMS5003;36277;32.852;-116.998;2022-08-19T08:11:50;5.00;5.00;3.00
45700;PMS5003;36277;32.852;-116.998;2022-08-19T08:14:29;4.40;4.40;4.00
45700;PMS5003;36277;32.852;-116.998;2022-08-19T08:16:58;3.00;3.00;2.00
45700;PMS5003;36277;32.852;-116.998;2022-08-19T08:19:26;4.00;4.00;4.00
45700;PMS5003;36277;32.852;-116.998;2022-08-19T08:21:54;5.00;5.00;4.00
45700;PMS5003;36277;32.852;-116.998;2022-08-19T08:24:22;3.60;3.60;2.60
45700;PMS5003;36277;32.852;-116.998;2022-08-19T08:26:48;3.40;3.40;2.60
45700;PMS5003;36277;32.852;-116.998;2022-08-19T08:29:15;3.00;3.00;2.20
45700;PMS5003;36277;32.852;-116.998;2022-08-19T08:31:42;4.00;4.00;3.60
45700;PMS5003;36277;32.852;-116.998;2022-08-19T08:34:10;1.60;1.60;1.60
45700;PMS5003;36277;32.852;-116.998;2022-08-19T08:36:40;3.00;3.00;3.00
45700;PMS5003;36277;32.852;-116.998;2022-08-19T08:39:10;2.80;2.80;2.40
45700;PMS5003;36277;32.852;-116.998;2022-08-19T08:44:36;2.20;2.20;2.00
45700;PMS5003;36277;32.852;-116.998;2022-08-19T08:47:36;1.00;1.00;0.60
45700;PMS5003;36277;32.852;-116.998;2022-08-19T08:50:12;3.60;3.60;3.00
45700;PMS5003;36277;32.852;-116.998;2022-08-19T08:52:45;3.00;3.00;2.80
45700;PMS5003;36277;32.852;-116.998;2022-08-19T08:55:16;2.60;2.60;2.00
45700;PMS5003;36277;32.852;-116.998;2022-08-19T09:02:57;3.00;3.00;2.00
45700;PMS5003;36277;32.852;-116.998;2022-08-19T09:05:30;2.00;2.00;2.00
45700;PMS5003;36277;32.852;-116.998;2022-08-19T09:08:56;2.80;2.80;2.00
45700;PMS5003;36277;32.852;-116.998;2022-08-19T09:17:07;3.00;3.00;2.00
45700;PMS5003;36277;32.852;-116.998;2022-08-19T09:19:35;1.00;1.00;1.00
45700;PMS5003;36277;32.852;-116.998;2022-08-19T09:22:14;2.60;2.60;2.00
45700;PMS5003;36277;32.852;-116.998;2022-08-19T09:24:41;2.00;2.00;2.00
45700;PMS5003;36277;32.852;-116.998;2022-08-19T09:27:07;2.00;2.00;2.00
45700;PMS5003;36277;32.852;-116.998;2022-08-19T09:29:33;1.80;1.80;1.80
45700;PMS5003;36277;32.852;-116.998;2022-08-19T09:32:00;3.00;3.00;3.00
45700;PMS5003;36277;32.852;-116.998;2022-08-19T09:34:26;3.00;3.00;2.00
45700;PMS5003;36277;32.852;-116.998;2022-08-19T09:36:52;2.60;2.60;2.40
45700;PMS5003;36277;32.852;-116.998;2022-08-19T09:39:20;2.00;2.00;2.00
45700;PMS5003;36277;32.852;-116.998;2022-08-19T09:41:46;2.00;2.00;1.60
45700;PMS5003;36277;32.852;-116.998;2022-08-19T09:44:14;3.00;3.00;3.00
45700;PMS5003;36277;32.852;-116.998;2022-08-19T09:46:41;2.00;2.00;2.00
45700;PMS5003;36277;32.852;-116.998;2022-08-19T09:49:07;2.40;2.40;1.80
45700;PMS5003;36277;32.852;-116.998;2022-08-19T09:51:33;2.00;2.00;1.60
45700;PMS5003;36277;32.852;-116.998;2022-08-19T09:54:01;3.00;3.00;2.00
45700;PMS5003;36277;32.852;-116.998;2022-08-19T09:56:29;2.00;2.00;2.00
45700;PMS5003;36277;32.852;-116.998;2022-08-19T09:58:57;2.00;2.00;2.00
45700;PMS5003;36277;32.852;-116.998;2022-08-19T10:01:29;3.00;3.00;2.80
45700;PMS5003;36277;32.852;-116.998;2022-08-19T10:03:57;2.20;2.20;2.00
45700;PMS5003;36277;32.852;-116.998;2022-08-19T10:06:26;2.00;2.00;2.00
45700;PMS5003;36277;32.852;-116.998;2022-08-19T10:08:59;2.40;2.40;2.00
45700;PMS5003;36277;32.852;-116.998;2022-08-19T10:11:26;2.00;2.00;1.80
45700;PMS5003;36277;32.852;-116.998;2022-08-19T10:13:53;0.00;0.00;0.00
45700;PMS5003;36277;32.852;-116.998;2022-08-19T10:16:20;1.00;1.00;1.00
45700;PMS5003;36277;32.852;-116.998;2022-08-19T10:18:48;1.80;1.80;1.40
45700;PMS5003;36277;32.852;-116.998;2022-08-19T10:21:17;1.60;1.60;1.00
45700;PMS5003;36277;32.852;-116.998;2022-08-19T10:23:52;2.00;2.00;1.80
45700;PMS5003;36277;32.852;-116.998;2022-08-19T10:26:22;2.00;2.00;2.00
45700;PMS5003;36277;32.852;-116.998;2022-08-19T10:28:50;2.00;2.00;2.00
45700;PMS5003;36277;32.852;-116.998;2022-08-19T10:31:27;2.00;2.00;2.00
45700;PMS5003;36277;32.852;-116.998;2022-08-19T10:33:55;2.00;2.00;1.00
45700;PMS5003;36277;32.852;-116.998;2022-08-19T10:36:30;2.00;2.00;2.00
45700;PMS5003;36277;32.852;-116.998;2022-08-19T10:38:58;1.00;1.00;1.00
45700;PMS5003;36277;32.852;-116.998;2022-08-19T10:41:28;2.00;2.00;2.00
45700;PMS5003;36277;32.852;-116.998;2022-08-19T10:43:57;2.00;2.00;2.00
45700;PMS5003;36277;32.852;-116.998;2022-08-19T10:46:28;1.00;1.00;1.00
45700;PMS5003;36277;32.852;-116.998;2022-08-19T10:49:03;2.00;2.00;2.00
45700;PMS5003;36277;32.852;-116.998;2022-08-19T10:51:30;2.00;2.00;1.80
45700;PMS5003;36277;32.852;-116.998;2022-08-19T10:54:16;1.80;1.80;1.20
45700;PMS5003;36277;32.852;-116.998;2022-08-19T10:56:42;2.20;2.20;2.00
45700;PMS5003;36277;32.852;-116.998;2022-08-19T10:59:22;1.00;1.00;1.00
45700;PMS5003;36277;32.852;-116.998;2022-08-19T11:01:53;0.00;0.00;0.00
45700;PMS5003;36277;32.852;-116.998;2022-08-19T11:04:24;2.00;2.00;1.40
45700;PMS5003;36277;32.852;-116.998;2022-08-19T11:06:50;2.00;2.00;2.00
45700;PMS5003;36277;32.852;-116.998;2022-08-19T11:09:23;1.00;1.00;1.00
45700;PMS5003;36277;32.852;-116.998;2022-08-19T11:11:52;2.20;2.20;2.00
45700;PMS5003;36277;32.852;-116.998;2022-08-19T11:14:20;1.00;1.00;1.00
45700;PMS5003;36277;32.852;-116.998;2022-08-19T11:16:47;1.00;1.00;0.40
45700;PMS5003;36277;32.852;-116.998;2022-08-19T11:19:17;2.00;2.00;1.60
45700;PMS5003;36277;32.852;-116.998;2022-08-19T11:21:45;1.80;1.80;1.80
45700;PMS5003;36277;32.852;-116.998;2022-08-19T11:24:17;2.00;2.00;1.00
45700;PMS5003;36277;32.852;-116.998;2022-08-19T11:26:49;2.00;2.00;2.00
45700;PMS5003;36277;32.852;-116.998;2022-08-19T11:29:18;2.00;2.00;1.60
45700;PMS5003;36277;32.852;-116.998;2022-08-19T11:31:46;2.00;2.00;1.00
45700;PMS5003;36277;32.852;-116.998;2022-08-19T11:34:16;2.00;2.00;2.00
45700;PMS5003;36277;32.852;-116.998;2022-08-19T11:36:47;2.00;2.00;1.20
45700;PMS5003;36277;32.852;-116.998;2022-08-19T11:39:17;1.40;1.40;1.00
45700;PMS5003;36277;32.852;-116.998;2022-08-19T11:41:45;2.00;2.00;1.00
45700;PMS5003;36277;32.852;-116.998;2022-08-19T11:44:12;2.00;2.00;2.00
45700;PMS5003;36277;32.852;-116.998;2022-08-19T11:46:39;2.00;2.00;1.60
45700;PMS5003;36277;32.852;-116.998;2022-08-19T11:49:08;2.00;2.00;2.00
45700;PMS5003;36277;32.852;-116.998;2022-08-19T11:51:35;1.60;1.60;1.40
45700;PMS5003;36277;32.852;-116.998;2022-08-19T11:54:02;2.00;2.00;2.00
45700;PMS5003;36277;32.852;-116.998;2022-08-19T11:56:31;2.00;2.00;2.00
45700;PMS5003;36277;32.852;-116.998;2022-08-19T11:58:58;1.00;1.00;1.00
45700;PMS5003;36277;32.852;-116.998;2022-08-19T12:01:26;1.00;1.00;0.80
45700;PMS5003;36277;32.852;-116.998;2022-08-19T12:03:53;3.00;3.00;3.00
45700;PMS5003;36277;32.852;-116.998;2022-08-19T12:06:22;2.20;2.20;2.00
45700;PMS5003;36277;32.852;-116.998;2022-08-19T12:09:02;2.00;2.00;2.00
45700;PMS5003;36277;32.852;-116.998;2022-08-19T12:11:31;1.80;1.80;1.20
45700;PMS5003;36277;32.852;-116.998;2022-08-19T12:13:57;1.00;1.00;1.00
45700;PMS5003;36277;32.852;-116.998;2022-08-19T12:16:25;2.00;2.00;1.40
45700;PMS5003;36277;32.852;-116.998;2022-08-19T12:18:55;2.00;2.00;1.00
45700;PMS5003;36277;32.852;-116.998;2022-08-19T12:21:24;2.20;2.20;2.00
45700;PMS5003;36277;32.852;-116.998;2022-08-19T12:23:54;2.00;2.00;1.60
45700;PMS5003;36277;32.852;-116.998;2022-08-19T12:26:21;2.00;2.00;1.40
45700;PMS5003;36277;32.852;-116.998;2022-08-19T12:28:49;0.80;0.80;0.40
45700;PMS5003;36277;32.852;-116.998;2022-08-19T12:31:16;2.00;2.00;1.40
45700;PMS5003;36277;32.852;-116.998;2022-08-19T12:33:43;2.00;2.00;2.00
45700;PMS5003;36277;32.852;-116.998;2022-08-19T12:36:10;1.40;1.40;1.00
45700;PMS5003;36277;32.852;-116.998;2022-08-19T12:38:38;1.00;1.00;1.00
45700;PMS5003;36277;32.852;-116.998;2022-08-19T12:41:06;2.00;2.00;2.00
45700;PMS5003;36277;32.852;-116.998;2022-08-19T12:43:37;2.00;2.00;2.00
45700;PMS5003;36277;32.852;-116.998;2022-08-19T12:46:04;2.60;2.60;2.40
45700;PMS5003;36277;32.852;-116.998;2022-08-19T12:48:31;2.80;2.80;2.00
45700;PMS5003;36277;32.852;-116.998;2022-08-19T12:50:59;1.40;1.40;1.40
45700;PMS5003;36277;32.852;-116.998;2022-08-19T12:53:27;2.00;2.00;1.80
45700;PMS5003;36277;32.852;-116.998;2022-08-19T12:55:57;1.60;1.60;1.60
45700;PMS5003;36277;32.852;-116.998;2022-08-19T12:58:25;1.40;1.40;1.20
45700;PMS5003;36277;32.852;-116.998;2022-08-19T13:00:52;2.00;2.00;2.00
45700;PMS5003;36277;32.852;-116.998;2022-08-19T13:03:18;1.40;1.40;1.40
45700;PMS5003;36277;32.852;-116.998;2022-08-19T13:05:44;2.00;2.00;1.00
45700;PMS5003;36277;32.852;-116.998;2022-08-19T13:08:11;2.00;2.00;1.60
45700;PMS5003;36277;32.852;-116.998;2022-08-19T13:10:37;2.00;2.00;2.00
45700;PMS5003;36277;32.852;-116.998;2022-08-19T13:13:04;2.00;2.00;1.60
45700;PMS5003;36277;32.852;-116.998;2022-08-19T13:15:36;0.60;0.60;0.60
45700;PMS5003;36277;32.852;-116.998;2022-08-19T13:18:05;3.00;3.00;2.00
45700;PMS5003;36277;32.852;-116.998;2022-08-19T13:20:34;2.00;2.00;1.20
45700;PMS5003;36277;32.852;-116.998;2022-08-19T13:23:02;1.80;1.80;1.00
45700;PMS5003;36277;32.852;-116.998;2022-08-19T13:25:29;1.00;1.00;0.00
45700;PMS5003;36277;32.852;-116.998;2022-08-19T13:27:56;2.00;2.00;1.20
45700;PMS5003;36277;32.852;-116.998;2022-08-19T13:30:22;1.60;1.60;1.00
45700;PMS5003;36277;32.852;-116.998;2022-08-19T13:33:08;2.00;2.00;1.40
45700;PMS5003;36277;32.852;-116.998;2022-08-19T13:35:47;1.40;1.40;1.00
45700;PMS5003;36277;32.852;-116.998;2022-08-19T13:38:22;2.00;2.00;2.00
45700;PMS5003;36277;32.852;-116.998;2022-08-19T13:40:50;1.40;1.40;1.40
45700;PMS5003;36277;32.852;-116.998;2022-08-19T13:43:18;1.20;1.20;1.00
45700;PMS5003;36277;32.852;-116.998;2022-08-19T13:45:47;1.80;1.80;1.60
45700;PMS5003;36277;32.852;-116.998;2022-08-19T13:48:14;2.00;2.00;1.40
45700;PMS5003;36277;32.852;-116.998;2022-08-19T13:50:42;1.00;1.00;0.80
45700;PMS5003;36277;32.852;-116.998;2022-08-19T13:53:12;1.00;1.00;1.00
45700;PMS5003;36277;32.852;-116.998;2022-08-19T13:55:39;2.00;2.00;1.00
45700;PMS5003;36277;32.852;-116.998;2022-08-19T13:58:07;2.00;2.00;1.60
45700;PMS5003;36277;32.852;-116.998;2022-08-19T14:00:37;2.00;2.00;2.00
45700;PMS5003;36277;32.852;-116.998;2022-08-19T14:03:06;1.00;1.00;1.00
45700;PMS5003;36277;32.852;-116.998;2022-08-19T14:05:33;2.00;2.00;2.00
45700;PMS5003;36277;32.852;-116.998;2022-08-19T14:08:00;2.40;2.40;2.00